createdAt,value
2019-03-22T00:00:43.166Z,51.43
2019-03-22T00:03:14.670Z,52.67
2019-03-22T00:05:46.566Z,43.07
2019-03-22T00:08:18.467Z,47.73
2019-03-22T00:10:50.025Z,47.33
2019-03-22T00:13:21.594Z,48.77
2019-03-22T00:15:53.083Z,50.67
2019-03-22T00:18:24.681Z,58.23
2019-03-22T00:20:56.194Z,54.60
2019-03-22T00:23:27.725Z,50.63
2019-03-22T00:25:59.228Z,56.93
2019-03-22T00:28:30.827Z,57.00
2019-03-22T00:31:13.830Z,55.63
2019-03-22T00:33:45.433Z,56.90
2019-03-22T00:36:16.923Z,49.73
2019-03-22T00:38:48.426Z,53.83
2019-03-22T00:41:19.926Z,57.70
2019-03-22T00:43:51.630Z,59.67
2019-03-22T00:46:22.222Z,58.50
2019-03-22T00:48:53.487Z,58.57
2019-03-22T00:51:24.982Z,56.93
2019-03-22T00:53:56.509Z,63.03
2019-03-22T00:56:28.414Z,62.67
2019-03-22T00:58:59.952Z,62.70
2019-03-22T01:01:31.455Z,59.37
2019-03-22T01:04:04.050Z,56.47
2019-03-22T01:06:35.537Z,57.90
2019-03-22T01:09:06.509Z,56.43
2019-03-22T01:11:37.885Z,55.03
2019-03-22T01:14:09.419Z,57.87
2019-03-22T01:16:40.917Z,61.23
2019-03-22T01:19:12.418Z,58.43
2019-03-22T01:21:43.922Z,60.57
2019-03-22T01:24:15.458Z,61.40
2019-03-22T01:26:46.944Z,60.43
2019-03-22T01:29:18.442Z,60.57
2019-03-22T01:31:50.149Z,62.97
2019-03-22T01:34:21.650Z,64.13
2019-03-22T01:36:53.179Z,54.23
2019-03-22T01:39:24.686Z,59.13
2019-03-22T01:41:56.190Z,59.73
2019-03-22T01:44:27.683Z,65.63
2019-03-22T01:46:59.201Z,63.97
2019-03-22T01:49:30.694Z,61.20
2019-03-22T01:52:02.197Z,58.63
2019-03-22T01:54:33.770Z,56.87
2019-03-22T01:57:05.282Z,61.03
2019-03-22T01:59:36.774Z,53.77
2019-03-22T02:02:09.354Z,60.90
2019-03-22T02:04:40.981Z,61.77
2019-03-22T02:07:12.470Z,66.93
2019-03-22T02:09:43.966Z,64.83
2019-03-22T02:12:15.511Z,69.87
2019-03-22T02:14:46.998Z,79.73
2019-03-22T02:17:18.526Z,79.17
2019-03-22T02:19:50.017Z,74.00
2019-03-22T02:22:21.534Z,66.43
2019-03-22T02:24:53.029Z,66.37
2019-03-22T02:27:26.002Z,65.27
2019-03-22T02:29:57.490Z,79.33
2019-03-22T02:32:30.463Z,69.57
2019-03-22T02:35:01.981Z,77.97
2019-03-22T02:37:33.487Z,66.87
2019-03-22T02:40:04.421Z,62.77
2019-03-22T02:42:35.721Z,62.87
2019-03-22T02:45:08.274Z,76.20
2019-03-22T02:47:39.769Z,71.03
2019-03-22T02:50:17.834Z,75.43
2019-03-22T02:52:43.968Z,78.53
2019-03-22T02:55:15.733Z,70.17
2019-03-22T02:57:47.215Z,58.53
2019-03-22T03:00:19.016Z,72.77
2019-03-22T03:02:49.694Z,65.57
2019-03-22T03:05:21.066Z,72.33
2019-03-22T03:07:51.632Z,63.27
2019-03-22T03:10:23.021Z,72.43
2019-03-22T03:12:54.492Z,58.13
2019-03-22T03:15:25.982Z,61.33
2019-03-22T03:17:56.615Z,59.97
2019-03-22T03:20:27.009Z,65.97
2019-03-22T03:22:58.315Z,59.30
2019-03-22T03:25:28.907Z,64.90
2019-03-22T03:28:00.219Z,63.80
2019-03-22T03:30:31.693Z,59.53
2019-03-22T03:33:03.211Z,62.50
2019-03-22T03:35:34.710Z,55.03
2019-03-22T03:38:05.314Z,61.10
2019-03-22T03:40:36.894Z,60.60
2019-03-22T03:43:07.486Z,65.97
2019-03-22T03:45:38.843Z,62.87
2019-03-22T03:48:10.669Z,63.47
2019-03-22T03:50:42.178Z,62.63
2019-03-22T03:53:13.708Z,58.87
2019-03-22T03:55:45.208Z,57.83
2019-03-22T03:58:16.777Z,57.40
2019-03-22T04:00:48.254Z,61.90
2019-03-22T04:03:19.789Z,61.67
2019-03-22T04:05:51.274Z,59.40
2019-03-22T04:08:23.234Z,61.23
2019-03-22T04:10:55.129Z,59.23
2019-03-22T04:13:26.622Z,56.23
2019-03-22T04:15:58.477Z,58.47
2019-03-22T04:18:29.979Z,58.87
2019-03-22T04:21:01.511Z,58.87
2019-03-22T04:23:33.010Z,56.23
2019-03-22T04:26:05.025Z,58.07
2019-03-22T04:28:36.531Z,60.20
2019-03-22T04:31:08.041Z,58.20
2019-03-22T04:33:39.543Z,59.83
2019-03-22T04:36:11.075Z,54.47
2019-03-22T04:38:42.575Z,63.33
2019-03-22T04:41:14.474Z,60.70
2019-03-22T04:43:45.974Z,56.67
2019-03-22T04:46:18.399Z,57.37
2019-03-22T04:48:52.585Z,52.97
2019-03-22T04:51:25.393Z,55.60
2019-03-22T04:54:01.365Z,57.27
2019-03-22T04:56:34.513Z,56.30
2019-03-22T04:59:19.102Z,62.07
2019-03-22T05:01:47.490Z,59.43
2019-03-22T05:04:20.130Z,56.20
2019-03-22T05:06:53.781Z,59.47
2019-03-22T05:09:27.901Z,58.87
2019-03-22T05:12:00.529Z,59.63
2019-03-22T05:14:36.462Z,56.00
2019-03-22T05:17:08.965Z,52.87
2019-03-22T05:19:43.478Z,58.83
2019-03-22T05:22:21.295Z,58.07
2019-03-22T05:24:56.371Z,53.60
2019-03-22T05:27:43.848Z,53.83
2019-03-22T05:30:54.194Z,54.83
2019-03-22T05:33:25.505Z,50.67
2019-03-22T05:35:58.070Z,55.80
2019-03-22T05:38:28.670Z,58.73
2019-03-22T05:40:58.966Z,54.10
2019-03-22T05:43:31.509Z,47.53
2019-03-22T05:46:03.002Z,54.53
2019-03-22T05:48:34.526Z,51.67
2019-03-22T05:51:06.017Z,60.07
2019-03-22T05:53:38.614Z,53.70
2019-03-22T05:56:10.118Z,53.07
2019-03-22T05:58:41.666Z,55.43
2019-03-22T06:01:13.183Z,59.93
2019-03-22T06:03:48.422Z,60.70
2019-03-22T06:06:20.846Z,56.70
2019-03-22T06:08:52.356Z,58.03
2019-03-22T06:11:23.859Z,49.10
2019-03-22T06:13:55.394Z,57.83
2019-03-22T06:16:26.898Z,50.93
2019-03-22T06:18:59.859Z,51.37
2019-03-22T06:21:31.358Z,50.30
2019-03-22T06:24:02.901Z,53.00
2019-03-22T06:26:34.401Z,54.57
2019-03-22T06:29:06.363Z,50.90
2019-03-22T06:31:37.866Z,43.47
2019-03-22T06:34:09.426Z,50.10
2019-03-22T06:36:41.140Z,51.33
2019-03-22T06:39:12.654Z,46.47
2019-03-22T06:41:44.182Z,46.40
2019-03-22T06:44:14.733Z,54.87
2019-03-22T06:46:46.438Z,46.73
2019-03-22T06:49:18.042Z,43.77
2019-03-22T06:51:49.558Z,57.47
2019-03-22T06:54:31.107Z,46.07
2019-03-22T06:56:55.411Z,49.23
2019-03-22T06:59:26.982Z,48.07
2019-03-22T07:01:58.506Z,46.87
2019-03-22T07:04:30.010Z,49.43
2019-03-22T07:07:01.614Z,41.00
2019-03-22T07:09:33.110Z,46.30
2019-03-22T07:12:04.739Z,48.63
2019-03-22T07:14:36.326Z,47.60
2019-03-22T07:17:07.842Z,50.50
2019-03-22T07:19:39.382Z,46.10
2019-03-22T07:22:10.908Z,42.97
2019-03-22T07:24:42.410Z,42.63
2019-03-22T07:27:13.922Z,47.77
2019-03-22T07:29:45.442Z,43.40
2019-03-22T07:32:16.982Z,41.37
2019-03-22T07:34:48.502Z,48.73
2019-03-22T07:37:19.958Z,49.03
2019-03-22T07:39:51.486Z,47.37
2019-03-22T07:42:23.014Z,51.00
2019-03-22T07:44:54.446Z,44.60
2019-03-22T07:47:25.969Z,43.87
2019-03-22T07:49:57.438Z,43.53
2019-03-22T07:52:28.885Z,49.20
2019-03-22T07:55:00.447Z,46.00
2019-03-22T07:57:31.942Z,46.73
2019-03-22T08:00:03.563Z,39.30
2019-03-22T08:02:35.138Z,42.43
2019-03-22T08:05:07.214Z,47.30
2019-03-22T08:07:38.642Z,44.53
2019-03-22T08:10:10.469Z,40.97
2019-03-22T08:12:42.043Z,46.10
2019-03-22T08:15:17.426Z,41.07
2019-03-22T08:17:49.043Z,40.33
2019-03-22T08:20:20.541Z,36.87
2019-03-22T08:22:51.989Z,34.60
2019-03-22T08:25:23.505Z,39.77
2019-03-22T08:27:54.117Z,42.50
2019-03-22T08:30:25.433Z,41.13
2019-03-22T08:32:58.779Z,40.40
2019-03-22T08:35:30.290Z,40.03
2019-03-22T08:38:01.832Z,37.43
2019-03-22T08:40:33.430Z,42.57
2019-03-22T08:43:04.978Z,39.13
2019-03-22T08:45:36.513Z,43.30
2019-03-22T08:48:08.014Z,40.77
2019-03-22T08:50:39.637Z,44.60
2019-03-22T08:53:11.164Z,46.57
2019-03-22T08:55:42.675Z,41.63
2019-03-22T08:58:13.245Z,42.60
2019-03-22T09:00:56.620Z,39.20
2019-03-22T09:03:17.718Z,38.00
2019-03-22T09:05:49.230Z,42.13
2019-03-22T09:08:20.754Z,48.07
2019-03-22T09:10:52.283Z,42.23
2019-03-22T09:13:23.809Z,41.97
2019-03-22T09:15:55.368Z,32.53
2019-03-22T09:18:26.858Z,31.13
2019-03-22T09:20:58.424Z,33.33
2019-03-22T09:23:29.962Z,32.93
2019-03-22T09:26:01.539Z,32.57
2019-03-22T09:28:33.054Z,29.73
2019-03-22T09:31:10.095Z,30.13
2019-03-22T09:33:37.711Z,29.53
2019-03-22T09:36:27.963Z,25.23
2019-03-22T09:38:59.504Z,28.23
2019-03-22T09:41:31.012Z,27.63
2019-03-22T09:44:02.508Z,23.47
2019-03-22T09:46:34.026Z,21.17
2019-03-22T09:49:05.530Z,21.83
2019-03-22T09:51:36.184Z,21.20
2019-03-22T09:54:07.454Z,25.43
2019-03-22T09:56:47.062Z,15.63
2019-03-22T09:59:12.133Z,17.33
2019-03-22T10:01:43.622Z,12.67
2019-03-22T10:04:14.278Z,16.80
2019-03-22T10:06:45.571Z,17.77
2019-03-22T10:09:17.119Z,15.13
2019-03-22T10:11:48.628Z,15.23
2019-03-22T10:14:21.450Z,17.00
2019-03-22T10:16:53.180Z,12.57
2019-03-22T10:19:24.696Z,17.03
2019-03-22T10:21:56.193Z,15.13
2019-03-22T10:24:27.722Z,13.07
2019-03-22T10:26:58.335Z,16.27
2019-03-22T10:29:29.677Z,18.37
2019-03-22T10:32:01.200Z,18.97
2019-03-22T10:34:32.727Z,19.40
2019-03-22T10:37:04.402Z,21.60
2019-03-22T10:39:35.938Z,17.47
2019-03-22T10:42:07.485Z,21.70
2019-03-22T10:44:39.400Z,18.30
2019-03-22T10:47:23.038Z,19.33
2019-03-22T10:49:54.642Z,19.13
2019-03-22T10:52:26.153Z,19.00
2019-03-22T10:55:23.653Z,17.83
2019-03-22T10:57:42.025Z,19.70
2019-03-22T11:00:16.674Z,20.07
2019-03-22T11:02:48.197Z,18.40
2019-03-22T11:05:19.833Z,16.37
2019-03-22T11:07:51.346Z,15.20
2019-03-22T11:10:22.870Z,21.23
2019-03-22T11:12:54.410Z,24.73
2019-03-22T11:15:25.913Z,19.90
2019-03-22T11:17:57.463Z,17.67
2019-03-22T11:20:28.974Z,18.07
2019-03-22T11:23:00.488Z,17.87
2019-03-22T11:25:31.128Z,20.87
2019-03-22T11:28:02.471Z,20.17
2019-03-22T11:30:34.048Z,22.93
2019-03-22T11:33:06.275Z,19.53
2019-03-22T11:35:37.810Z,22.27
2019-03-22T11:38:09.246Z,21.40
2019-03-22T11:40:40.808Z,22.07
2019-03-22T11:43:12.261Z,24.10
2019-03-22T11:45:43.731Z,21.63
2019-03-22T11:48:14.305Z,24.57
2019-03-22T11:50:45.654Z,20.80
2019-03-22T11:53:17.158Z,21.87
2019-03-22T11:55:48.698Z,24.90
2019-03-22T11:58:20.202Z,28.33
2019-03-22T12:00:51.733Z,27.23
2019-03-22T12:03:23.238Z,25.33
2019-03-22T12:05:54.684Z,30.13
2019-03-22T12:08:26.191Z,27.93
2019-03-22T12:10:58.183Z,28.83
2019-03-22T12:13:29.686Z,29.03
2019-03-22T12:16:01.157Z,26.23
2019-03-22T12:18:32.670Z,28.27
2019-03-22T12:21:04.230Z,32.33
2019-03-22T12:23:35.751Z,27.37
2019-03-22T12:26:19.386Z,33.37
2019-03-22T12:28:50.898Z,35.00
2019-03-22T12:31:22.413Z,33.07
2019-03-22T12:33:53.925Z,36.47
2019-03-22T12:36:25.504Z,31.13
2019-03-22T12:38:57.002Z,34.47
2019-03-22T12:41:28.514Z,31.77
2019-03-22T12:44:00.023Z,27.87
2019-03-22T12:46:31.546Z,28.60
2019-03-22T12:49:02.994Z,24.13
2019-03-22T12:51:34.506Z,20.97
2019-03-22T12:54:05.958Z,20.60
2019-03-22T12:56:37.477Z,20.43
2019-03-22T12:59:09.027Z,21.33
2019-03-22T13:01:40.560Z,20.70
2019-03-22T13:04:12.079Z,20.73
2019-03-22T13:06:43.963Z,21.40
2019-03-22T13:09:15.488Z,21.13
2019-03-22T13:11:46.994Z,22.10
2019-03-22T13:14:18.534Z,21.30
2019-03-22T13:16:51.131Z,21.43
2019-03-22T13:19:22.682Z,19.60
2019-03-22T13:21:53.274Z,18.97
2019-03-22T13:24:24.558Z,19.30
2019-03-22T13:26:56.074Z,20.47
2019-03-22T13:29:26.618Z,17.10
2019-03-22T13:31:57.942Z,17.37
2019-03-22T13:34:29.485Z,19.97
2019-03-22T13:37:00.946Z,18.80
2019-03-22T13:39:32.574Z,16.00
2019-03-22T13:42:04.098Z,18.57
2019-03-22T13:44:35.599Z,18.23
2019-03-22T13:47:07.130Z,14.50
2019-03-22T13:49:38.634Z,16.43
2019-03-22T13:52:10.142Z,14.17
2019-03-22T13:54:41.747Z,17.73
2019-03-22T13:57:13.246Z,15.47
2019-03-22T13:59:44.754Z,14.50
2019-03-22T14:02:16.294Z,13.80
2019-03-22T14:04:47.795Z,16.60
2019-03-22T14:07:19.439Z,15.63
2019-03-22T14:09:52.023Z,16.90
2019-03-22T14:12:24.649Z,13.97
2019-03-22T14:14:56.146Z,17.50
2019-03-22T14:17:27.698Z,22.00
2019-03-22T14:19:59.215Z,18.60
2019-03-22T14:22:30.726Z,20.43
2019-03-22T14:25:02.187Z,21.70
2019-03-22T14:27:33.821Z,22.47
2019-03-22T14:30:06.190Z,18.57
2019-03-22T14:32:36.878Z,15.33
2019-03-22T14:35:08.843Z,13.23
2019-03-22T14:37:40.418Z,14.00
2019-03-22T14:40:15.585Z,14.43
2019-03-22T14:42:45.221Z,14.43
2019-03-22T14:45:16.746Z,13.17
2019-03-22T14:47:48.242Z,11.43
2019-03-22T14:50:19.811Z,14.53
2019-03-22T14:52:53.366Z,16.47
2019-03-22T14:55:24.439Z,17.37
2019-03-22T14:57:56.040Z,14.50
2019-03-22T15:00:46.354Z,14.60
2019-03-22T15:03:29.114Z,15.03
2019-03-22T15:06:00.410Z,14.63
2019-03-22T15:08:31.990Z,15.33
2019-03-22T15:11:22.238Z,16.40
2019-03-22T15:14:15.674Z,12.63
2019-03-22T15:17:11.698Z,14.20
2019-03-22T15:20:00.754Z,14.73
2019-03-22T15:22:51.232Z,18.63
2019-03-22T15:25:39.494Z,12.70
2019-03-22T15:28:38.506Z,12.70
2019-03-22T15:31:27.585Z,15.27
2019-03-22T15:34:17.986Z,17.67
2019-03-22T15:37:07.327Z,25.40
2019-03-22T15:39:56.614Z,21.93
2019-03-22T15:42:28.218Z,22.67
2019-03-22T15:44:59.720Z,21.23
2019-03-22T15:47:31.269Z,45.10
2019-03-22T15:50:02.809Z,29.60
2019-03-22T15:52:34.318Z,19.07
2019-03-22T15:55:07.014Z,17.37
2019-03-22T15:57:49.370Z,26.13
2019-03-22T16:00:20.815Z,20.37
2019-03-22T16:02:52.426Z,19.80
2019-03-22T16:05:23.027Z,20.73
2019-03-22T16:07:54.478Z,16.07
2019-03-22T16:10:25.922Z,19.03
2019-03-22T16:12:57.474Z,18.30
2019-03-22T16:15:29.086Z,13.63
2019-03-22T16:18:01.716Z,16.13
2019-03-22T16:20:33.681Z,25.47
2019-03-22T16:23:04.384Z,25.80
2019-03-22T16:25:35.949Z,24.93
2019-03-22T16:28:07.482Z,23.03
2019-03-22T16:30:38.109Z,34.33
2019-03-22T16:33:09.438Z,23.47
2019-03-22T16:35:40.058Z,47.23
2019-03-22T16:38:14.902Z,48.87
2019-03-22T16:40:46.998Z,58.03
2019-03-22T16:43:19.510Z,33.50
2019-03-22T16:45:50.091Z,40.03
2019-03-22T16:48:21.854Z,50.57
2019-03-22T16:50:53.894Z,33.70
2019-03-22T16:53:26.162Z,26.07
2019-03-22T16:56:01.029Z,36.40
2019-03-22T16:58:33.848Z,87.97
2019-03-22T17:01:06.684Z,48.90
2019-03-22T17:03:38.562Z,58.50
2019-03-22T17:06:11.511Z,42.70
2019-03-22T17:08:43.478Z,107.00
2019-03-22T17:11:14.983Z,51.93
2019-03-22T17:13:46.470Z,70.37
2019-03-22T17:16:18.574Z,51.43
2019-03-22T17:18:50.739Z,53.73
2019-03-22T17:21:22.161Z,44.70
2019-03-22T17:24:12.401Z,38.10
2019-03-22T17:26:44.070Z,37.67
2019-03-22T17:29:14.737Z,34.33
2019-03-22T17:31:45.966Z,32.70
2019-03-22T17:34:28.026Z,42.63
2019-03-22T17:37:03.301Z,51.60
2019-03-22T17:39:34.989Z,61.63
2019-03-22T17:42:06.657Z,70.07
2019-03-22T17:44:38.170Z,57.73
2019-03-22T17:47:10.334Z,62.37
2019-03-22T17:49:48.053Z,75.87
2019-03-22T17:52:15.010Z,77.73
2019-03-22T17:54:46.518Z,62.33
2019-03-22T17:57:18.957Z,276.73
2019-03-22T17:59:50.524Z,126.63
2019-03-22T18:02:22.042Z,94.97
2019-03-22T18:04:53.556Z,50.47
2019-03-22T18:07:25.171Z,36.17
2019-03-22T18:09:56.664Z,71.33
2019-03-22T18:12:27.271Z,48.37
2019-03-22T18:14:58.586Z,40.00
2019-03-22T18:17:29.197Z,48.23
2019-03-22T18:20:00.494Z,38.63
2019-03-22T18:22:33.097Z,39.60
2019-03-22T18:25:04.945Z,47.13
2019-03-22T18:27:36.462Z,60.80
2019-03-22T18:30:08.861Z,58.10
2019-03-22T18:32:41.353Z,49.90
2019-03-22T18:35:14.337Z,40.33
2019-03-22T18:37:45.894Z,30.33
2019-03-22T18:40:17.894Z,40.10
2019-03-22T18:42:49.386Z,67.53
2019-03-22T18:45:20.954Z,46.03
2019-03-22T18:47:52.862Z,50.90
2019-03-22T18:50:24.433Z,64.10
2019-03-22T18:52:55.966Z,71.30
2019-03-22T18:55:27.562Z,73.20
2019-03-22T18:57:59.181Z,98.57
2019-03-22T19:00:30.748Z,91.33
2019-03-22T19:03:02.346Z,237.17
2019-03-22T19:05:33.854Z,71.27
2019-03-22T19:08:05.362Z,79.40
2019-03-22T19:10:37.021Z,68.37
2019-03-22T19:13:08.538Z,113.73
2019-03-22T19:15:40.326Z,114.27
2019-03-22T19:18:12.018Z,149.93
2019-03-22T19:20:43.530Z,105.73
2019-03-22T19:23:14.518Z,139.57
2019-03-22T19:25:45.826Z,78.47
2019-03-22T19:28:17.350Z,211.47
2019-03-22T19:30:49.207Z,75.87
2019-03-22T19:33:23.406Z,53.30
2019-03-22T19:35:56.961Z,70.03
2019-03-22T19:38:33.650Z,67.73
2019-03-22T19:41:05.169Z,64.27
2019-03-22T19:43:36.794Z,122.40
2019-03-22T19:46:08.341Z,108.50
2019-03-22T19:48:40.289Z,389.10
2019-03-22T19:51:11.916Z,398.37
2019-03-22T19:53:43.865Z,101.73
2019-03-22T19:56:16.185Z,85.03
2019-03-22T19:58:46.926Z,495.60
2019-03-22T20:01:17.522Z,372.17
2019-03-22T20:03:51.301Z,426.43
2019-03-22T20:06:22.764Z,475.23
2019-03-22T20:08:54.642Z,540.37
2019-03-22T20:11:26.744Z,554.53
2019-03-22T20:13:58.423Z,578.87
2019-03-22T20:16:30.238Z,622.07
2019-03-22T20:19:01.962Z,591.23
2019-03-22T20:21:33.025Z,627.77
2019-03-22T20:24:04.266Z,593.60
2019-03-22T20:26:36.583Z,525.10
2019-03-22T20:29:08.276Z,578.23
2019-03-22T20:31:39.754Z,514.57
2019-03-22T20:34:11.675Z,471.17
2019-03-22T20:36:43.848Z,406.93
2019-03-22T20:39:14.503Z,315.37
2019-03-22T20:41:45.874Z,465.23
2019-03-22T20:44:17.366Z,283.40
2019-03-22T20:46:48.949Z,339.40
2019-03-22T20:49:20.594Z,281.77
2019-03-22T20:51:52.285Z,196.40
2019-03-22T20:54:23.942Z,198.10
2019-03-22T20:56:55.693Z,294.53
2019-03-22T20:59:27.209Z,127.00
2019-03-22T21:01:58.684Z,374.03
2019-03-22T21:04:30.173Z,425.67
2019-03-22T21:07:01.768Z,424.93
2019-03-22T21:09:33.429Z,369.67
2019-03-22T21:12:05.494Z,339.43
2019-03-22T21:14:37.402Z,440.90
2019-03-22T21:17:09.549Z,379.57
2019-03-22T21:19:41.270Z,410.93
2019-03-22T21:22:12.836Z,395.13
2019-03-22T21:24:44.731Z,262.77
2019-03-22T21:27:16.062Z,355.30
2019-03-22T21:29:47.938Z,345.57
2019-03-22T21:32:19.638Z,352.20
2019-03-22T21:34:51.247Z,396.20
2019-03-22T21:37:22.886Z,396.73
2019-03-22T21:39:55.038Z,437.97
2019-03-22T21:42:26.574Z,394.13
2019-03-22T21:44:58.191Z,348.13
2019-03-22T21:47:29.890Z,221.27
2019-03-22T21:50:01.615Z,254.57
2019-03-22T21:52:33.318Z,174.03
2019-03-22T21:55:05.071Z,114.77
2019-03-22T21:57:37.699Z,137.50
2019-03-22T22:00:09.313Z,119.97
2019-03-22T22:02:40.829Z,166.10
2019-03-22T22:05:11.405Z,144.30
2019-03-22T22:07:42.742Z,105.70
2019-03-22T22:10:14.338Z,88.53
2019-03-22T22:12:45.993Z,93.57
2019-03-22T22:15:16.641Z,97.57
2019-03-22T22:17:47.900Z,96.77
2019-03-22T22:20:28.505Z,84.63
2019-03-22T22:22:52.750Z,89.17
2019-03-22T22:25:24.261Z,96.13
2019-03-22T22:27:55.773Z,112.10
2019-03-22T22:30:27.398Z,97.40
2019-03-22T22:32:58.882Z,108.27
2019-03-22T22:35:30.394Z,107.90
2019-03-22T22:38:02.207Z,118.33
2019-03-22T22:40:33.973Z,118.93
2019-03-22T22:43:05.570Z,98.70
2019-03-22T22:45:37.070Z,112.80
2019-03-22T22:48:08.883Z,97.87
2019-03-22T22:50:39.461Z,103.33
2019-03-22T22:53:10.747Z,112.57
2019-03-22T22:55:42.794Z,95.63
2019-03-22T22:58:14.398Z,100.17
2019-03-22T23:00:46.916Z,114.43
2019-03-22T23:03:17.831Z,101.30
2019-03-22T23:05:49.193Z,89.30
2019-03-22T23:08:20.901Z,100.53
2019-03-22T23:10:52.437Z,96.17
2019-03-22T23:13:24.125Z,95.33
2019-03-22T23:15:55.765Z,106.67
2019-03-22T23:18:27.313Z,101.93
2019-03-22T23:20:58.862Z,90.47
2019-03-22T23:23:30.490Z,95.23
2019-03-22T23:26:02.113Z,85.00
2019-03-22T23:28:35.626Z,87.83
2019-03-22T23:31:07.258Z,95.93
2019-03-22T23:33:38.861Z,87.00
2019-03-22T23:36:19.814Z,88.10
2019-03-22T23:38:43.654Z,83.73
2019-03-22T23:41:15.262Z,85.40
2019-03-22T23:43:46.830Z,83.90
2019-03-22T23:46:18.434Z,81.47
2019-03-22T23:48:49.934Z,82.90
2019-03-22T23:51:22.258Z,87.07
2019-03-22T23:53:53.566Z,77.33
2019-03-22T23:56:24.175Z,78.13
2019-03-22T23:58:55.545Z,75.23
